Time;durP1;ratioP1;P1;durP2;ratioP2;P2;SDS_P1;SDS_P2;PMS_P1;PMS_P2;Temp;Humidity;BMP_temperature;BMP_pressure;BME280_temperature;BME280_humidity;BME280_pressure;Samples;Min_cycle;Max_cycle;Signal;HPM_P1;HPM_P2
2023/01/14 00:00:05;;;;;;;18.48;3.35;;;;;;;6.16;64.83;100036.38;10255217;28;20042;-65
2023/01/14 00:05:07;;;;;;;19.85;3.30;;;;;;;6.10;64.85;100031.41;10262464;28;20065;-65
2023/01/14 00:10:09;;;;;;;19.30;3.65;;;;;;;6.03;64.83;100031.72;10263581;28;20050;-65
2023/01/14 00:15:11;;;;;;;18.23;3.20;;;;;;;5.97;64.88;100042.34;10264104;28;20057;-64
2023/01/14 00:20:13;;;;;;;16.02;3.20;;;;;;;5.88;64.92;100051.31;10267638;28;20367;-65
2023/01/14 00:25:15;;;;;;;22.77;3.30;;;;;;;5.91;64.94;100039.97;10262500;28;20387;-65
2023/01/14 00:30:16;;;;;;;23.52;4.00;;;;;;;5.85;64.87;100035.88;10270864;28;20419;-65
2023/01/14 00:35:18;;;;;;;19.10;3.53;;;;;;;5.84;64.78;100029.00;10266632;28;20059;-65
2023/01/14 00:40:20;;;;;;;15.80;3.35;;;;;;;5.86;64.81;100029.78;10264500;28;20046;-65
2023/01/14 00:45:21;;;;;;;18.92;3.50;;;;;;;5.85;64.81;100024.66;10263796;28;20415;-65
2023/01/14 00:50:23;;;;;;;17.33;3.70;;;;;;;5.94;64.75;100022.53;10279920;28;20406;-65
2023/01/14 00:55:25;;;;;;;23.35;3.97;;;;;;;6.05;64.57;100017.78;10267304;28;20412;-65
2023/01/14 01:00:26;;;;;;;22.95;3.70;;;;;;;6.15;64.19;100019.09;10269471;28;20447;-65
2023/01/14 01:05:32;;;;;;;18.77;3.25;;;;;;;6.16;64.13;100019.94;10268523;28;20058;-65
2023/01/14 01:10:34;;;;;;;20.08;3.42;;;;;;;6.24;64.09;100023.94;10262300;28;20046;-65
2023/01/14 01:15:37;;;;;;;19.52;4.28;;;;;;;6.30;63.98;100028.91;10269118;28;20050;-65
2023/01/14 01:20:40;;;;;;;22.80;3.50;;;;;;;6.31;63.64;100042.72;10268421;28;20043;-65
2023/01/14 01:25:41;;;;;;;15.18;3.75;;;;;;;6.25;63.51;100046.41;10264871;28;20050;-65
2023/01/14 01:30:43;;;;;;;21.50;3.70;;;;;;;6.10;63.69;100062.56;10261385;28;20961;-65
2023/01/14 01:35:45;;;;;;;15.20;2.90;;;;;;;5.93;63.87;100058.94;10266150;28;20134;-65
2023/01/14 01:40:49;;;;;;;18.42;3.70;;;;;;;5.90;63.75;100052.09;10272776;28;20490;-65
2023/01/14 01:45:52;;;;;;;18.60;3.78;;;;;;;5.77;64.01;100066.47;10262793;28;20502;-65
2023/01/14 01:51:04;;;;;;;16.98;3.67;;;;;;;5.77;63.80;100069.06;10259972;28;20035;-65
2023/01/14 01:56:08;;;;;;;24.92;3.83;;;;;;;5.72;63.98;100072.72;10264452;28;20057;-65
2023/01/14 02:01:12;;;;;;;24.63;4.25;;;;;;;5.74;63.89;100068.34;10266744;28;20057;-65
2023/01/14 02:06:14;;;;;;;18.00;4.18;;;;;;;5.75;63.85;100067.44;10272432;28;20065;-65
2023/01/14 02:11:27;;;;;;;17.33;3.45;;;;;;;5.80;63.60;100065.53;10273915;28;20084;-65
2023/01/14 02:16:50;;;;;;;21.45;3.22;;;;;;;5.67;63.79;100067.72;10271813;28;20052;-65
2023/01/14 02:22:09;;;;;;;19.92;4.03;;;;;;;5.74;63.47;100078.72;10266550;28;20475;-64
2023/01/14 02:27:29;;;;;;;20.27;3.83;;;;;;;5.66;63.53;100085.94;10265793;28;20725;-65
2023/01/14 02:32:39;;;;;;;18.60;3.25;;;;;;;5.67;63.63;100075.50;10261376;28;20051;-65
2023/01/14 02:38:19;;;;;;;20.95;3.63;;;;;;;5.49;63.65;100073.59;10276144;28;20184;-65
2023/01/14 02:48:54;;;;;;;19.52;3.28;;;;;;;5.45;63.86;100064.25;10271920;28;20042;-65
2023/01/14 02:53:56;;;;;;;23.35;3.70;;;;;;;5.48;63.71;100071.91;10266054;28;20284;-65
2023/01/14 02:59:09;;;;;;;22.27;3.60;;;;;;;5.47;63.73;100059.84;10259665;28;20046;-65
2023/01/14 03:04:38;;;;;;;22.15;3.65;;;;;;;5.41;63.71;100049.69;10271386;28;20055;-64
2023/01/14 03:09:51;;;;;;;21.83;3.50;;;;;;;5.33;63.78;100051.72;10262541;28;20050;-65
2023/01/14 03:15:13;;;;;;;22.42;4.25;;;;;;;5.36;63.97;100039.50;10272796;28;20058;-65
2023/01/14 03:20:30;;;;;;;20.92;3.72;;;;;;;5.32;63.75;100029.28;10271129;28;20376;-65
2023/01/14 03:25:35;;;;;;;16.58;3.60;;;;;;;5.34;63.70;99998.94;10270012;28;20058;-65
2023/01/14 03:30:42;;;;;;;18.38;3.30;;;;;;;5.32;63.62;100016.31;10263532;28;20051;-65
2023/01/14 03:35:47;;;;;;;18.58;3.40;;;;;;;5.23;63.88;100019.22;10268883;28;20061;-65
2023/01/14 03:40:51;;;;;;;20.67;3.38;;;;;;;5.16;64.06;100004.81;10268937;28;20046;-65
2023/01/14 03:45:54;;;;;;;19.58;3.20;;;;;;;5.09;64.17;99990.38;10268178;28;20054;-65
2023/01/14 03:51:14;;;;;;;18.35;3.13;;;;;;;5.09;63.89;99996.41;10285181;28;20129;-65
2023/01/14 03:56:42;;;;;;;18.45;3.40;;;;;;;5.05;63.99;100006.94;10285483;28;20065;-64
2023/01/14 04:01:48;;;;;;;21.83;3.85;;;;;;;5.11;63.95;99999.78;10272828;28;20054;-65
2023/01/14 04:06:51;;;;;;;14.68;3.38;;;;;;;5.08;64.01;99994.72;10286727;28;20051;-65
2023/01/14 04:11:53;;;;;;;21.23;3.63;;;;;;;5.06;64.05;99985.31;10275284;28;20057;-65
2023/01/14 04:16:54;;;;;;;20.10;3.35;;;;;;;5.05;64.11;99981.03;10262074;28;20215;-65
2023/01/14 04:21:56;;;;;;;19.90;3.13;;;;;;;5.14;64.06;99975.50;10252536;28;20042;-65
2023/01/14 04:26:58;;;;;;;19.13;3.67;;;;;;;5.11;64.20;99967.84;10267632;28;20089;-65
2023/01/14 04:31:59;;;;;;;18.05;3.30;;;;;;;5.26;63.84;99982.84;10262735;28;20047;-65
2023/01/14 04:37:01;;;;;;;17.67;3.17;;;;;;;5.31;63.67;100004.25;10266495;28;20061;-65
2023/01/14 04:47:24;;;;;;;27.75;4.30;;;;;;;5.36;63.55;99997.13;10266044;28;20050;-65
2023/01/14 04:52:26;;;;;;;15.45;3.22;;;;;;;5.43;63.48;99972.69;10267996;28;20375;-65
2023/01/14 04:57:27;;;;;;;16.77;3.47;;;;;;;5.43;63.33;99975.28;10277131;28;20278;-65
2023/01/14 05:02:30;;;;;;;15.68;3.75;;;;;;;5.37;63.26;99971.13;10266293;28;20058;-65
2023/01/14 05:07:32;;;;;;;19.88;3.67;;;;;;;5.26;63.74;99978.50;10262400;28;20537;-65
2023/01/14 05:12:33;;;;;;;20.35;3.25;;;;;;;5.39;63.79;99984.91;10270539;28;20050;-65
2023/01/14 05:17:38;;;;;;;19.65;3.30;;;;;;;5.66;63.43;99975.22;10265800;28;20057;-65
2023/01/14 05:22:40;;;;;;;21.88;3.42;;;;;;;5.86;63.00;99962.28;10270732;28;20050;-65
2023/01/14 05:27:42;;;;;;;18.02;3.47;;;;;;;6.03;62.67;99944.28;10267626;28;20053;-65
2023/01/14 05:32:43;;;;;;;18.27;3.38;;;;;;;6.15;62.36;99938.59;10265777;28;20382;-65
2023/01/14 05:37:45;;;;;;;17.52;3.65;;;;;;;6.23;62.20;99933.94;10265961;28;20053;-65
2023/01/14 05:48:09;;;;;;;26.27;3.42;;;;;;;6.24;61.81;99921.78;10266684;28;20050;-65
2023/01/14 05:53:11;;;;;;;21.50;3.70;;;;;;;6.26;61.61;99902.69;10263656;28;20051;-66
2023/01/14 05:58:13;;;;;;;16.98;3.53;;;;;;;6.34;61.44;99894.56;10269154;28;20411;-65
2023/01/14 06:08:40;;;;;;;18.38;3.72;;;;;;;6.33;61.57;99890.25;10272316;28;20049;-66
2023/01/14 06:13:42;;;;;;;17.02;3.80;;;;;;;6.39;61.55;99890.00;10270211;28;20062;-65
2023/01/14 06:18:45;;;;;;;18.25;3.58;;;;;;;6.34;61.58;99876.38;10270172;28;20050;-65
2023/01/14 06:23:47;;;;;;;20.83;3.88;;;;;;;6.31;61.65;99879.94;10264961;28;20164;-65
2023/01/14 06:28:49;;;;;;;20.20;3.17;;;;;;;6.29;61.58;99863.56;10268308;28;20043;-65
2023/01/14 06:33:51;;;;;;;19.50;3.00;;;;;;;6.24;61.78;99862.06;10257118;28;20050;-65
2023/01/14 06:38:52;;;;;;;18.60;3.25;;;;;;;6.10;61.93;99854.03;10268636;28;20418;-66
2023/01/14 06:43:54;;;;;;;22.30;3.78;;;;;;;6.05;61.97;99854.22;10267133;28;20059;-66
2023/01/14 06:48:56;;;;;;;18.85;3.40;;;;;;;5.98;62.23;99844.97;10268053;28;20302;-66
2023/01/14 06:53:57;;;;;;;15.73;3.67;;;;;;;5.85;62.33;99836.03;10260526;28;20443;-65
2023/01/14 06:58:59;;;;;;;18.10;3.90;;;;;;;5.82;62.28;99828.38;10272565;28;20046;-66
2023/01/14 07:04:00;;;;;;;18.75;4.15;;;;;;;5.71;62.48;99825.41;10263114;28;20060;-66
2023/01/14 07:09:02;;;;;;;17.55;4.10;;;;;;;5.71;62.82;99815.03;10272324;28;20046;-66
2023/01/14 07:14:04;;;;;;;18.27;3.83;;;;;;;5.79;62.76;99817.28;10262981;28;20214;-65
2023/01/14 07:19:05;;;;;;;19.88;3.50;;;;;;;5.93;62.79;99802.81;10261209;28;20058;-66
2023/01/14 07:24:07;;;;;;;21.98;4.13;;;;;;;5.98;62.53;99787.88;10269889;28;20521;-66
2023/01/14 07:29:09;;;;;;;20.95;4.20;;;;;;;6.09;62.49;99779.63;10269398;28;20055;-65
2023/01/14 07:34:12;;;;;;;18.15;3.78;;;;;;;6.18;62.45;99774.91;10254992;28;20054;-66
2023/01/14 07:39:13;;;;;;;28.75;4.30;;;;;;;6.32;61.95;99759.56;10278782;28;20046;-65
2023/01/14 07:44:18;;;;;;;15.50;3.92;;;;;;;6.44;61.84;99754.72;10264530;28;20431;-66
2023/01/14 07:49:21;;;;;;;17.50;4.20;;;;;;;6.53;61.56;99747.31;10263307;28;20085;-66
2023/01/14 07:54:23;;;;;;;19.65;4.25;;;;;;;6.60;61.57;99740.09;10268175;28;20052;-66
2023/01/14 07:59:24;;;;;;;23.70;5.18;;;;;;;6.57;61.66;99741.09;10265123;28;20050;-66
2023/01/14 08:04:26;;;;;;;22.00;5.60;;;;;;;6.59;61.68;99739.28;10256440;28;20054;-66
2023/01/14 08:09:28;;;;;;;16.05;4.10;;;;;;;6.69;61.66;99731.91;10253604;28;20452;-66
2023/01/14 08:14:30;;;;;;;23.58;4.28;;;;;;;6.75;61.47;99724.66;10268529;28;20142;-66
2023/01/14 08:19:32;;;;;;;20.58;3.60;;;;;;;6.73;61.60;99710.88;10258021;28;20210;-65
2023/01/14 08:24:33;;;;;;;17.45;4.18;;;;;;;6.83;61.53;99698.28;10262856;28;20050;-66
2023/01/14 08:29:35;;;;;;;18.85;3.38;;;;;;;6.77;62.04;99690.78;10258029;28;20054;-66
2023/01/14 08:34:37;;;;;;;19.85;4.15;;;;;;;6.81;61.94;99684.53;10268612;28;20419;-65
2023/01/14 08:39:38;;;;;;;19.90;4.65;;;;;;;6.86;62.26;99665.19;10267938;28;20388;-66
2023/01/14 08:44:40;;;;;;;16.35;3.72;;;;;;;6.91;62.22;99668.41;10266948;28;20059;-66
2023/01/14 08:49:42;;;;;;;14.10;3.75;;;;;;;6.79;62.54;99655.16;10259914;28;20047;-65
2023/01/14 08:54:44;;;;;;;17.77;3.42;;;;;;;6.85;62.27;99667.88;10274101;28;20041;-66
2023/01/14 08:59:47;;;;;;;22.20;4.10;;;;;;;6.99;62.15;99655.03;10260476;28;20053;-66
2023/01/14 09:04:49;;;;;;;20.38;4.03;;;;;;;7.12;62.00;99650.91;10271412;28;20050;-65
2023/01/14 09:20:42;;;;;;;13.90;3.40;;;;;;;7.19;62.20;99611.50;10265793;28;20403;-65
2023/01/14 09:25:44;;;;;;;11.38;2.60;;;;;;;7.22;62.23;99600.13;10285423;28;20123;-66
2023/01/14 09:30:47;;;;;;;8.35;2.70;;;;;;;7.25;62.40;99594.75;10265520;28;20050;-66
2023/01/14 09:35:49;;;;;;;10.50;2.85;;;;;;;7.33;62.22;99571.78;10270906;28;20177;-65
2023/01/14 09:40:51;;;;;;;13.95;2.55;;;;;;;7.56;61.87;99567.97;10267524;28;20057;-66
2023/01/14 09:46:12;;;;;;;8.10;2.63;;;;;;;7.60;61.88;99564.28;10265080;28;20086;-65
2023/01/14 09:51:20;;;;;;;8.30;2.30;;;;;;;7.67;61.88;99555.22;10274807;28;20045;-66
2023/01/14 09:56:25;;;;;;;7.95;2.13;;;;;;;7.64;61.97;99538.00;10264670;28;20046;-65
2023/01/14 10:01:49;;;;;;;9.30;2.65;;;;;;;7.76;61.81;99539.09;10270298;28;20132;-66
2023/01/14 10:06:56;;;;;;;7.55;2.28;;;;;;;7.82;61.89;99534.41;10273461;28;20145;-66
2023/01/14 10:12:02;;;;;;;8.07;2.10;;;;;;;7.78;62.25;99525.09;10282498;28;20101;-66
2023/01/14 10:17:11;;;;;;;5.38;1.80;;;;;;;7.80;62.19;99515.44;10301481;28;20082;-66
2023/01/14 10:22:15;;;;;;;7.95;2.30;;;;;;;7.89;61.95;99504.53;10259048;28;20199;-66
2023/01/14 10:27:18;;;;;;;7.38;2.13;;;;;;;7.82;62.40;99490.16;10260276;28;20051;-65
2023/01/14 10:32:21;;;;;;;6.22;2.20;;;;;;;7.80;62.47;99473.78;10271687;28;20605;-65
2023/01/14 10:37:23;;;;;;;9.13;2.55;;;;;;;7.85;62.42;99455.31;10268583;28;20047;-66
2023/01/14 10:42:26;;;;;;;10.85;2.25;;;;;;;7.92;62.43;99441.00;10266136;28;20066;-66
2023/01/14 10:47:30;;;;;;;8.27;2.60;;;;;;;7.95;62.25;99413.03;10268473;28;20421;-65
2023/01/14 10:52:33;;;;;;;9.70;2.78;;;;;;;7.94;62.47;99393.13;10270963;28;20140;-65
2023/01/14 10:57:45;;;;;;;9.32;2.97;;;;;;;7.94;62.49;99382.72;10269035;28;20059;-65
2023/01/14 11:02:49;;;;;;;8.82;2.95;;;;;;;7.83;62.81;99364.25;10268850;28;20081;-65
2023/01/14 11:07:53;;;;;;;9.75;2.35;;;;;;;7.96;62.56;99346.16;10268101;28;20106;-65
2023/01/14 11:13:24;;;;;;;10.00;2.65;;;;;;;8.01;62.11;99316.34;10270274;28;20077;-65
2023/01/14 11:18:30;;;;;;;11.05;2.85;;;;;;;8.12;62.38;99305.31;10265116;28;20543;-65
2023/01/14 11:23:38;;;;;;;7.60;2.47;;;;;;;8.01;62.50;99289.47;10275090;28;20490;-65
2023/01/14 11:28:46;;;;;;;9.07;2.80;;;;;;;8.05;62.33;99280.53;10276195;28;20042;-65
2023/01/14 11:33:51;;;;;;;9.57;2.70;;;;;;;8.14;62.30;99266.16;10273805;28;20054;-65
2023/01/14 11:38:58;;;;;;;11.52;4.78;;;;;;;8.36;61.90;99261.31;10268575;28;20082;-66
2023/01/14 11:44:09;;;;;;;9.98;2.40;;;;;;;8.32;62.02;99237.22;10264882;28;20065;-65
2023/01/14 11:49:19;;;;;;;8.30;2.60;;;;;;;8.20;63.17;99216.31;10265750;28;20039;-66
2023/01/14 11:54:20;;;;;;;9.40;2.78;;;;;;;8.17;63.40;99211.28;10263506;28;20578;-66
2023/01/14 11:59:29;;;;;;;8.35;2.17;;;;;;;8.10;63.57;99191.72;10260083;28;20043;-65
2023/01/14 12:04:40;;;;;;;9.80;3.10;;;;;;;8.11;63.81;99194.25;10255471;28;20214;-65
2023/01/14 12:09:54;;;;;;;11.33;2.43;;;;;;;8.11;63.92;99178.63;10270189;28;20317;-65
2023/01/14 12:20:28;;;;;;;8.70;2.70;;;;;;;8.29;63.61;99151.44;10259558;28;20049;-65
2023/01/14 12:25:36;;;;;;;6.55;2.78;;;;;;;8.29;63.60;99148.84;10275078;28;20050;-66
2023/01/14 12:30:40;;;;;;;9.55;3.83;;;;;;;8.27;63.73;99131.63;10265342;28;20070;-65
2023/01/14 12:35:50;;;;;;;7.70;2.97;;;;;;;8.33;63.49;99116.44;10276997;28;20410;-65
2023/01/14 12:46:14;;;;;;;9.68;4.38;;;;;;;8.40;63.64;99103.88;10266112;28;20058;-65
2023/01/14 12:51:24;;;;;;;7.90;3.85;;;;;;;8.44;63.65;99080.13;10264285;28;20141;-66
2023/01/14 12:56:28;;;;;;;8.15;2.35;;;;;;;8.41;63.60;99074.25;10245713;28;20054;-66
2023/01/14 13:01:49;;;;;;;5.68;1.70;;;;;;;8.33;62.97;99047.88;10254458;28;20050;-66
2023/01/14 13:07:01;;;;;;;6.75;2.35;;;;;;;8.42;63.56;99034.25;10262661;28;20495;-65
2023/01/14 13:12:03;;;;;;;6.18;1.80;;;;;;;8.47;63.22;99025.19;10266667;28;20055;-65
2023/01/14 13:17:16;;;;;;;4.78;1.70;;;;;;;8.59;63.20;99018.34;10263946;28;20047;-65
2023/01/14 13:22:36;;;;;;;6.10;1.95;;;;;;;8.50;63.47;99003.34;10269502;28;20477;-65
2023/01/14 13:27:40;;;;;;;5.50;1.90;;;;;;;8.57;63.42;98988.94;10276611;28;20057;-65
2023/01/14 13:33:01;;;;;;;4.35;1.65;;;;;;;8.52;63.60;98967.59;10263817;28;20046;-65
2023/01/14 13:38:28;;;;;;;4.80;1.48;;;;;;;8.48;63.72;98961.75;10276481;28;20141;-65
2023/01/14 13:43:29;;;;;;;4.45;1.52;;;;;;;8.59;63.62;98943.59;10269697;28;20106;-65
2023/01/14 13:48:40;;;;;;;5.85;1.77;;;;;;;8.56;63.72;98928.19;10284420;28;20051;-65
2023/01/14 13:53:58;;;;;;;4.47;1.60;;;;;;;8.57;63.71;98906.38;10280523;28;20407;-65
2023/01/14 13:59:27;;;;;;;3.60;1.50;;;;;;;8.56;63.76;98883.03;10272272;28;20054;-65
2023/01/14 14:04:59;;;;;;;4.32;1.27;;;;;;;8.43;63.83;98874.38;10276256;28;20045;-65
2023/01/14 14:10:07;;;;;;;2.83;1.20;;;;;;;8.58;63.81;98878.56;10271643;28;22730;-66
2023/01/14 14:15:22;;;;;;;3.20;1.33;;;;;;;8.55;63.76;98863.97;10268676;28;20067;-66
2023/01/14 14:20:39;;;;;;;2.78;1.20;;;;;;;8.57;63.73;98856.88;10265489;28;20051;-66
2023/01/14 14:25:43;;;;;;;4.30;1.70;;;;;;;8.67;63.73;98851.84;10266032;28;20082;-65
2023/01/14 14:30:58;;;;;;;3.00;1.42;;;;;;;8.69;63.54;98848.22;10263098;28;20050;-65
2023/01/14 14:36:09;;;;;;;3.17;1.30;;;;;;;8.77;63.50;98838.09;10269569;28;20050;-65
2023/01/14 14:41:18;;;;;;;2.97;1.20;;;;;;;8.83;63.38;98821.19;10261832;28;20616;-65
2023/01/14 14:46:23;;;;;;;4.57;2.00;;;;;;;8.84;63.30;98817.63;10265313;28;20059;-65
2023/01/14 14:51:28;;;;;;;2.40;1.20;;;;;;;8.89;63.13;98796.47;10270461;28;20050;-65
2023/01/14 14:56:31;;;;;;;2.03;1.10;;;;;;;8.92;63.18;98786.66;10269382;28;20047;-65
2023/01/14 15:01:36;;;;;;;2.03;1.00;;;;;;;8.95;63.04;98788.22;10266359;28;20077;-65
2023/01/14 15:06:39;;;;;;;2.72;1.27;;;;;;;9.03;63.04;98776.28;10258707;28;20043;-65
2023/01/14 15:11:44;;;;;;;2.95;1.10;;;;;;;9.03;63.10;98773.69;10263584;28;20057;-65
2023/01/14 15:16:53;;;;;;;2.85;1.10;;;;;;;8.93;62.99;98761.41;10265879;28;20053;-65
2023/01/14 15:22:02;;;;;;;2.17;0.90;;;;;;;9.02;63.26;98748.53;10260430;28;20237;-65
2023/01/14 15:27:11;;;;;;;1.73;0.82;;;;;;;8.96;63.24;98755.97;10260635;28;20566;-65
2023/01/14 15:32:40;;;;;;;4.28;1.17;;;;;;;8.94;63.29;98750.84;10262504;28;20475;-65
2023/01/14 15:37:41;;;;;;;2.45;1.20;;;;;;;9.07;63.16;98743.00;10259301;28;20502;-65
2023/01/14 15:42:45;;;;;;;2.97;1.10;;;;;;;9.13;63.12;98747.75;10260551;28;20085;-65
2023/01/14 15:47:47;;;;;;;1.90;1.10;;;;;;;9.08;63.28;98740.25;10263308;28;20050;-65
2023/01/14 15:53:15;;;;;;;2.50;1.38;;;;;;;9.09;63.04;98726.31;10263081;28;20043;-65
2023/01/14 15:58:28;;;;;;;3.10;1.60;;;;;;;9.23;63.03;98717.47;10260865;28;20050;-64
2023/01/14 16:03:41;;;;;;;3.45;1.33;;;;;;;9.29;63.11;98711.78;10254713;28;20206;-65
2023/01/14 16:08:45;;;;;;;3.75;1.45;;;;;;;9.24;63.27;98691.25;10259211;28;20051;-65
2023/01/14 16:13:47;;;;;;;2.25;1.20;;;;;;;9.16;63.56;98679.72;10256847;28;20038;-65
2023/01/14 16:18:52;;;;;;;3.42;1.50;;;;;;;9.21;63.50;98670.63;10264157;28;20514;-65
2023/01/14 16:23:54;;;;;;;2.80;1.20;;;;;;;9.27;63.52;98664.94;10259967;28;20054;-65
2023/01/14 16:28:55;;;;;;;3.47;1.60;;;;;;;9.33;63.38;98663.66;10262022;28;20427;-65
2023/01/14 16:33:57;;;;;;;3.50;1.85;;;;;;;9.33;63.30;98661.03;10258781;28;20061;-65
2023/01/14 16:39:02;;;;;;;4.38;1.20;;;;;;;9.31;63.37;98649.88;10259562;28;20045;-63
2023/01/14 16:44:03;;;;;;;1.98;1.20;;;;;;;9.38;63.69;98638.88;10254733;28;20993;-64
2023/01/14 16:49:06;;;;;;;1.83;1.13;;;;;;;9.37;63.65;98637.22;10263003;28;20533;-63
2023/01/14 16:54:20;;;;;;;3.63;1.50;;;;;;;9.37;63.81;98639.84;10266223;28;20053;-63
2023/01/14 16:59:22;;;;;;;4.28;1.90;;;;;;;9.32;63.97;98633.31;10264108;28;20070;-63
2023/01/14 17:04:25;;;;;;;8.60;6.07;;;;;;;9.43;63.78;98623.72;10264034;28;20053;-64
2023/01/14 17:09:27;;;;;;;4.03;2.28;;;;;;;9.44;63.87;98620.13;10265735;28;20482;-63
2023/01/14 17:14:29;;;;;;;6.03;3.88;;;;;;;9.47;63.96;98612.09;10267110;28;20047;-64
2023/01/14 17:19:30;;;;;;;4.53;1.80;;;;;;;9.45;64.00;98606.16;10268220;28;20046;-63
2023/01/14 17:24:33;;;;;;;2.97;1.40;;;;;;;9.48;64.13;98613.75;10295849;28;20077;-63
2023/01/14 17:29:35;;;;;;;3.30;1.58;;;;;;;9.45;64.29;98606.16;10277308;28;20050;-63
2023/01/14 17:34:38;;;;;;;2.58;1.25;;;;;;;9.45;64.29;98606.16;10279150;28;20286;-63
2023/01/14 17:39:39;;;;;;;2.85;1.30;;;;;;;9.54;64.11;98604.63;10268728;28;20053;-63
2023/01/14 17:44:43;;;;;;;2.97;1.50;;;;;;;9.56;64.15;98600.94;10270804;28;20054;-63
2023/01/14 17:49:46;;;;;;;3.80;1.42;;;;;;;9.61;64.06;98585.75;10274916;28;20050;-63
2023/01/14 17:54:50;;;;;;;1.83;1.40;;;;;;;9.55;64.22;98586.25;10273262;28;20113;-64
2023/01/14 17:59:53;;;;;;;2.50;1.20;;;;;;;9.62;64.09;98581.38;10275619;28;20054;-63
2023/01/14 18:04:56;;;;;;;3.00;1.20;;;;;;;9.67;64.22;98583.69;10270537;28;20046;-63
2023/01/14 18:09:57;;;;;;;2.35;1.25;;;;;;;9.65;63.75;98583.75;10282222;28;20053;-63
2023/01/14 18:14:59;;;;;;;3.15;1.17;;;;;;;9.71;63.74;98588.53;10263579;28;20042;-63
2023/01/14 18:20:01;;;;;;;1.10;1.00;;;;;;;9.76;63.28;98572.50;10271579;28;20059;-63
2023/01/14 18:25:02;;;;;;;1.67;1.05;;;;;;;9.82;63.35;98577.25;10268433;28;20537;-63
2023/01/14 18:30:05;;;;;;;3.70;1.17;;;;;;;9.80;63.32;98559.09;10262405;28;20054;-64
2023/01/14 18:35:07;;;;;;;1.05;0.80;;;;;;;9.71;63.77;98551.16;10265137;28;20486;-63
2023/01/14 18:40:09;;;;;;;1.30;0.90;;;;;;;9.68;63.64;98554.84;10262438;28;20057;-63
2023/01/14 18:45:13;;;;;;;4.00;1.00;;;;;;;9.84;63.43;98555.31;10264783;28;20054;-63
2023/01/14 18:50:15;;;;;;;0.98;0.80;;;;;;;9.84;63.42;98560.53;10261487;28;20050;-64
2023/01/14 18:55:17;;;;;;;1.27;0.90;;;;;;;9.83;63.77;98552.81;10264080;28;20074;-63
2023/01/14 19:00:19;;;;;;;1.45;0.90;;;;;;;9.85;63.77;98541.28;10265704;28;20054;-64
2023/01/14 19:05:21;;;;;;;1.50;1.15;;;;;;;9.84;63.99;98541.41;10267205;28;20109;-64
2023/01/14 19:10:22;;;;;;;0.77;0.65;;;;;;;9.95;63.73;98523.13;10256682;28;20043;-63
2023/01/14 19:15:26;;;;;;;1.45;0.88;;;;;;;10.04;63.45;98522.38;10268957;28;20053;-63
2023/01/14 19:20:28;;;;;;;2.03;0.88;;;;;;;10.04;63.41;98531.06;10250645;28;20053;-64
2023/01/14 19:25:29;;;;;;;2.50;1.20;;;;;;;10.07;63.47;98528.22;10256756;28;20415;-63
2023/01/14 19:30:31;;;;;;;1.30;0.90;;;;;;;10.01;63.71;98528.66;10259846;28;20050;-63
2023/01/14 19:35:34;;;;;;;1.52;0.80;;;;;;;10.08;63.62;98514.19;10267132;28;20049;-63
2023/01/14 19:40:37;;;;;;;2.63;1.23;;;;;;;9.95;63.95;98483.94;10264816;28;20391;-63
2023/01/14 19:45:38;;;;;;;1.70;1.05;;;;;;;9.95;64.15;98468.28;10260800;28;20054;-63
2023/01/14 19:50:40;;;;;;;2.67;0.90;;;;;;;9.89;64.37;98469.59;10264961;28;20050;-63
2023/01/14 19:55:52;;;;;;;0.90;0.60;;;;;;;9.81;64.83;98487.63;10261942;28;20421;-63
2023/01/14 20:01:04;;;;;;;1.55;1.00;;;;;;;9.84;64.79;98484.81;10263448;28;20043;-63
2023/01/14 20:06:06;;;;;;;1.63;0.70;;;;;;;9.85;64.72;98490.84;10272292;28;20137;-63
2023/01/14 20:11:09;;;;;;;1.40;0.80;;;;;;;9.75;65.39;98489.94;10261877;28;20043;-63
2023/01/14 20:16:13;;;;;;;2.47;0.90;;;;;;;9.81;65.18;98471.97;10269744;28;20521;-63
2023/01/14 20:21:20;;;;;;;0.85;0.75;;;;;;;9.75;65.60;98467.25;10275260;28;20356;-63
2023/01/14 20:26:24;;;;;;;13.05;6.25;;;;;;;9.77;65.55;98459.31;10261864;28;20406;-63
2023/01/14 20:31:28;;;;;;;4.30;2.60;;;;;;;9.78;65.60;98463.56;10282979;28;20043;-63
2023/01/14 20:36:30;;;;;;;2.97;1.65;;;;;;;9.68;65.93;98428.69;10273613;28;20042;-63
2023/01/14 20:46:53;;;;;;;1.77;1.20;;;;;;;9.51;66.82;98428.22;10269058;28;20086;-63
2023/01/14 20:51:55;;;;;;;2.65;1.70;;;;;;;9.55;66.96;98424.44;10271015;28;20042;-63
2023/01/14 20:56:57;;;;;;;5.00;2.20;;;;;;;9.59;67.22;98422.41;10278561;28;20498;-63
2023/01/14 21:01:59;;;;;;;3.13;1.60;;;;;;;9.58;67.17;98408.50;10269117;28;20130;-63
2023/01/14 21:07:01;;;;;;;2.55;1.55;;;;;;;9.58;67.37;98395.47;10271543;28;20350;-63
2023/01/14 21:12:05;;;;;;;2.25;1.20;;;;;;;9.60;67.19;98393.59;10268076;28;20050;-63
2023/01/14 21:27:53;;;;;;;3.60;2.00;;;;;;;9.61;67.43;98376.97;10276594;28;20510;-62
2023/01/14 21:32:57;;;;;;;4.13;2.60;;;;;;;9.67;67.60;98380.88;10272376;28;20495;-62
2023/01/14 21:38:00;;;;;;;4.05;2.80;;;;;;;9.64;67.96;98363.69;10266627;28;20495;-62
2023/01/14 21:48:21;;;;;;;1.63;1.10;;;;;;;9.41;68.96;98353.41;10269361;28;20392;-62
2023/01/14 21:53:24;;;;;;;3.03;1.77;;;;;;;9.34;69.62;98342.63;10269473;28;20095;-62
2023/01/14 21:58:26;;;;;;;2.10;1.20;;;;;;;9.32;69.59;98335.88;10265864;28;20193;-62
2023/01/14 22:03:28;;;;;;;1.52;1.10;;;;;;;9.41;69.19;98327.31;10269250;28;20086;-63
2023/01/14 22:08:30;;;;;;;3.58;1.20;;;;;;;9.47;69.07;98326.81;10285300;28;20378;-62
2023/01/14 22:13:31;;;;;;;3.15;1.00;;;;;;;9.47;68.89;98335.47;10276545;28;20065;-62
2023/01/14 22:18:34;;;;;;;1.00;0.90;;;;;;;9.50;68.98;98329.19;10271135;28;20190;-62
2023/01/14 22:23:40;;;;;;;2.13;0.90;;;;;;;9.56;68.75;98326.09;10269952;28;20039;-63
2023/01/14 22:28:47;;;;;;;2.70;1.00;;;;;;;9.57;68.91;98315.53;10269600;28;20073;-63
2023/01/14 22:33:59;;;;;;;1.33;1.10;;;;;;;9.57;68.86;98328.56;10269481;28;20137;-62
2023/01/14 22:39:00;;;;;;;0.80;0.80;;;;;;;9.67;68.64;98304.38;10264790;28;20051;-63
2023/01/14 22:44:02;;;;;;;1.35;1.00;;;;;;;9.73;68.14;98290.81;10271519;28;20059;-62
2023/01/14 22:49:04;;;;;;;1.95;1.30;;;;;;;9.77;67.99;98263.50;10265679;28;20043;-62
2023/01/14 22:54:05;;;;;;;3.10;1.35;;;;;;;9.76;68.34;98261.84;10265855;28;20050;-62
2023/01/14 22:59:07;;;;;;;1.10;0.73;;;;;;;9.82;68.16;98253.50;10267065;28;20053;-62
2023/01/14 23:04:09;;;;;;;1.17;1.00;;;;;;;9.83;67.71;98261.19;10276196;28;20062;-62
2023/01/14 23:09:11;;;;;;;1.70;1.00;;;;;;;9.82;67.96;98251.72;10263130;28;20046;-62
2023/01/14 23:14:17;;;;;;;1.23;0.93;;;;;;;9.82;67.78;98258.72;10279064;28;20407;-62
2023/01/14 23:19:22;;;;;;;1.83;1.10;;;;;;;9.61;68.61;98259.50;10264982;28;20046;-62
2023/01/14 23:24:25;;;;;;;1.15;1.00;;;;;;;9.52;69.35;98246.41;10273098;28;20066;-62
2023/01/14 23:29:27;;;;;;;1.55;0.80;;;;;;;9.33;70.00;98254.88;10263546;28;20065;-62
2023/01/14 23:34:28;;;;;;;1.77;1.10;;;;;;;9.22;70.55;98274.97;10267696;28;20414;-62
2023/01/14 23:39:30;;;;;;;1.23;1.10;;;;;;;9.23;70.85;98298.31;10258317;28;20053;-62
2023/01/14 23:44:32;;;;;;;1.40;1.00;;;;;;;9.22;71.16;98312.28;10271356;28;20065;-62
2023/01/14 23:49:34;;;;;;;2.00;0.80;;;;;;;9.18;70.77;98310.88;10263920;28;20051;-62
2023/01/14 23:54:35;;;;;;;1.65;0.77;;;;;;;9.14;70.61;98304.25;10259377;28;20051;-62
2023/01/14 23:59:38;;;;;;;1.48;1.10;;;;;;;9.25;70.03;98303.41;10270502;28;20408;-62
